• Join FlightAware (Why Join?)
  • Login
  • US Flag 
11:24PM EDT


 

Airport Tracker/Info


-or-


 

Live Flight TrackerFlight Track Log ✈ UAL4236 ✈ 18-Apr-2013 ✈ KIAH - KELP

Flight Track Log - Related Links

Times and Time Zones

All times are in EDT time to prevent confusion due to time zone crossing. See the UAL4236 flight status page for this flight to view local times or setup timezone preferences in your user account.

Time Position Orientation Groundspeed Altitude Reporting Facility
EDT Latitude Longitude Course Direction KTS MPH feet Rate Location/Type
10:19AM 29.9617 -95.3436 276° West 133 153 700  Level Houston Center
10:19AM 29.9394 -95.3536 201° Southwest 169 194 1,900 2,100 Climbing Houston Center
10:20AM 29.9106 -95.4053 237° Southwest 212 244 4,000 1,920 Climbing Houston Center
10:21AM 29.8936 -95.4369 238° Southwest 213 245 5,000 2,160 Climbing Houston Center
10:21AM 29.8744 -95.4672 234° Southwest 234 269 6,200 2,220 Climbing Houston Center
10:22AM 30.0258 -95.7320 277° West  Level FlightAware Approximate
10:22AM 29.8611 -95.5014 246° West 237 273 7,300  Level Houston Center
10:22AM 29.8642 -95.5408 275° West 260 299 8,100 1,620 Climbing Houston Center
10:23AM 30.0360 -95.8320 276° West  Level FlightAware Approximate
10:23AM 29.8806 -95.5786 297° West 263 303 9,000  Level Houston Center
10:23AM 29.8969 -95.6261 292° West 279 321 10,200 1,800 Climbing Houston Center
10:24AM 30.0444 -95.9324 276° West  Level FlightAware Approximate
10:24AM 29.9114 -95.6611 295° West 277 319 10,900  Level Houston Center
10:24AM 29.9297 -95.7089 294° West 280 322 12,000 1,800 Climbing Houston Center
10:25AM 29.9442 -95.7419 297° West 279 321 12,800 1,560 Climbing Houston Center
10:25AM 29.9622 -95.7919 293° West 282 325 13,600 1,320 Climbing Houston Center
10:26AM 29.9844 -95.8439 296° West 292 336 14,200 960 Climbing Houston Center
10:26AM 29.9967 -95.8747 295° West 319 367 14,500 840 Climbing Houston Center
10:27AM 30.0219 -95.9408 294° West 327 376 15,100 960 Climbing Houston Center
10:27AM 30.0400 -95.9856 295° West 341 392 15,600 720 Climbing Houston Center
10:28AM 30.0625 -96.0433 294° West 345 397 15,900 660 Climbing Houston Center
10:29AM 30.0853 -96.1558 283° West 364 419 16,800 1,200 Climbing Houston Center
10:30AM 30.1022 -96.2681 280° West 358 412 18,500 1,500 Climbing Houston Center
10:31AM 30.1200 -96.3803 280° West 357 411 19,900 1,200 Climbing Houston Center
10:32AM 30.1389 -96.5044 280° West 361 415 21,000 960 Climbing Houston Center
10:33AM 30.1553 -96.6183 279° West 358 412 22,000 480 Climbing Houston Center
10:34AM 30.1772 -96.7522 281° West 359 413 22,000  Level Houston Center
10:35AM 30.1931 -96.8728 279° West 369 425 22,000  Level Houston Center
10:36AM 30.2106 -96.9847 280° West 360 414 22,000  Level Houston Center
10:37AM 30.2250 -97.0981 278° West 352 405 22,000  Level Houston Center
10:38AM 30.2406 -97.2083 279° West 346 398 22,000  Level Houston Center
10:39AM 30.2567 -97.3167 280° West 340 391 22,000  Level Houston Center
10:40AM 30.2747 -97.4236 281° West 336 387 22,000  Level Houston Center
10:41AM 30.2978 -97.5281 284° West 331 381 22,000  Level Houston Center
10:42AM 30.3192 -97.6517 281° West 331 381 22,000  Level Houston Center
10:43AM 30.3378 -97.7572 282° West 331 381 22,000  Level Houston Center
10:44AM 30.3511 -97.8631 278° West 329 379 22,000  Level Houston Center
10:46AM 30.3653 -97.9667 279° West 323 372 22,000  Level Houston Center
10:47AM 30.3792 -98.0772 278° West 340 391 22,000  Level Houston Center
10:48AM 30.3947 -98.1933 279° West 358 412 22,000  Level Houston Center
10:49AM 30.4106 -98.3114 279° West 366 421 22,000  Level Houston Center
10:50AM 30.4264 -98.4328 279° West 375 432 22,000  Level Houston Center
10:51AM 30.4439 -98.5767 278° West 381 438 22,000  Level Houston Center
10:52AM 30.4603 -98.7017 279° West 388 447 22,000  Level Houston Center
10:53AM 30.4761 -98.8275 278° West 391 450 22,000  Level Houston Center
10:54AM 30.4933 -98.9539 279° West 394 453 22,000  Level Houston Center
10:55AM 30.5092 -99.0781 278° West 388 447 22,000  Level Houston Center
10:56AM 30.5297 -99.2014 281° West 382 440 22,000  Level Houston Center
10:57AM 30.5547 -99.3211 284° West 382 440 22,000  Level Houston Center
10:58AM 30.5775 -99.4386 283° West 378 435 22,000 180 Level Houston Center
10:59AM 30.6044 -99.5806 282° West 377 434 22,400 780 Climbing Houston Center
11:00AM 30.6278 -99.6961 283° West 372 428 23,700 1,260 Climbing Houston Center
11:01AM 30.6483 -99.8050 282° West 353 406 25,100 1,260 Climbing Houston Center
11:02AM 30.6692 -99.9103 283° West 341 392 26,400 1,260 Climbing Houston Center
11:03AM 30.6883 -100.0133 282° West 332 382 27,800 1,440 Climbing Houston Center
11:04AM 30.7106 -100.1317 282° West 318 366 29,400 1,440 Climbing Houston Center
11:05AM 30.7281 -100.2264 282° West 307 353 30,800 1,260 Climbing Houston Center
11:06AM 30.7456 -100.3181 283° West 299 344 32,100 1,080 Climbing Houston Center
11:07AM 30.7631 -100.4108 282° West 299 344 33,100 960 Climbing Houston Center
11:08AM 30.7808 -100.5047 282° West 302 348 34,100 1,020 Climbing Houston Center
11:09AM 30.8022 -100.6181 282° West 303 349 35,300 900 Climbing Houston Center
11:10AM 30.8186 -100.7119 282° West 304 350 36,000 300 Climbing Houston Center
11:11AM 30.8383 -100.8114 283° West 322 371 36,000  Level Houston Center
11:12AM 30.8553 -100.9153 281° West 329 379 36,000  Level Houston Center
11:13AM 30.8758 -101.0144 284° West 317 365 36,000  Level Houston Center
11:14AM 30.8964 -101.1361 281° West 321 369 36,000  Level Houston Center
11:16AM 30.9161 -101.2361 283° West 320 368 36,000 -60 Level Houston Center
11:17AM 30.9358 -101.3456 282° West 328 377 35,900  Descending Houston Center
11:18AM 30.9539 -101.4500 281° West 331 381 36,000  Climbing Houston Center
11:19AM 30.9725 -101.5561 282° West 333 383 36,000 -60 Level Houston Center
11:20AM 30.9914 -101.6639 282° West 338 389 35,900  Descending Houston Center
11:21AM 31.0100 -101.7683 282° West 333 383 36,000  Climbing Houston Center
11:22AM 31.0322 -101.8939 282° West 330 380 36,000  Level Houston Center
11:23AM 31.0497 -101.9969 281° West 326 375 36,000  Level Houston Center
11:24AM 31.0681 -102.1003 282° West 325 374 36,000  Level Houston Center
11:25AM 31.0867 -102.2039 282° West 324 373 36,000  Level Houston Center
11:26AM 31.1025 -102.3072 280° West 318 366 36,000  Level Houston Center
11:27AM 31.1192 -102.4111 281° West 323 372 36,000  Level Houston Center
11:28AM 31.1381 -102.5144 282° West 324 373 36,000  Level Houston Center
11:29AM 31.1556 -102.6161 281° West 320 368 36,000  Level Houston Center
11:30AM 31.1767 -102.7383 281° West 319 367 36,000  Level Houston Center
11:31AM 31.1939 -102.8400 281° West 319 367 36,000  Level Houston Center
11:32AM 31.2100 -102.9419 280° West 319 367 36,000  Level Houston Center
11:33AM 31.2278 -103.0431 282° West 318 366 36,000  Level Houston Center
11:34AM 31.2447 -103.1444 281° West 318 366 36,000  Level Houston Center
11:35AM 31.2622 -103.2456 281° West 318 366 36,000  Level Houston Center
11:36AM 31.2831 -103.3669 281° West 318 366 36,000  Level Houston Center
11:37AM 31.3008 -103.4881 280° West 317 365 36,000  Level Albuquerque Center
11:39AM 31.3169 -103.5892 281° West 316 364 36,000  Level Albuquerque Center
11:40AM 31.3328 -103.6900 280° West 317 365 36,000  Level Albuquerque Center
11:41AM 31.3497 -103.7925 281° West 316 364 36,000  Level Albuquerque Center
11:42AM 31.3658 -103.8942 281° West 317 365 36,000 -780 Level Albuquerque Center
11:43AM 31.3842 -104.0136 280° West 313 360 34,400 -1,500 Descending Albuquerque Center
11:44AM 31.4017 -104.1128 282° West 312 359 32,900 -1,500 Descending Albuquerque Center
11:45AM 31.4172 -104.2153 280° West 316 364 31,400 -1,500 Descending Albuquerque Center
11:46AM 31.4331 -104.3203 280° West 322 371 29,800 -1,560 Descending Albuquerque Center
11:47AM 31.4503 -104.4264 281° West 327 376 28,300 -900 Descending Albuquerque Center
11:48AM 31.4622 -104.5375 277° West 336 387 28,000 -180 Descending Albuquerque Center
11:49AM 31.4761 -104.6728 277° West 345 397 28,000  Level Albuquerque Center
11:50AM 31.4878 -104.7850 277° West 348 400 28,000 -60 Level Albuquerque Center
11:51AM 31.4997 -104.8975 277° West 349 402 27,900 -840 Descending Albuquerque Center
11:52AM 31.5103 -105.0042 277° West 342 394 26,300 -1,860 Descending Albuquerque Center
11:53AM 31.5211 -105.1156 277° West 344 396 24,200 -1,920 Descending Albuquerque Center
11:54AM 31.5328 -105.2264 277° West 345 397 22,400 -1,860 Descending Albuquerque Center
11:54AM 31.5364 -105.2839 274° West 350 403 21,700 -1,920 Descending Albuquerque Center
11:55AM 31.5417 -105.3447 276° West 352 405 20,800 -1,860 Descending Albuquerque Center
11:56AM 31.5528 -105.4594 277° West 350 403 18,900 -1,920 Descending Albuquerque Center
11:57AM 31.5639 -105.5639 277° West 326 375 17,000 -1,860 Descending Albuquerque Center
11:57AM 31.5664 -105.5794 281° West 329 379 16,600 -1,980 Descending Albuquerque Center
11:58AM 31.5744 -105.6658 276° West 318 366 15,000 -1,800 Descending Albuquerque Center
11:58AM 31.5764 -105.6819 278° West 319 367 14,800 -1,320 Descending Albuquerque Center
11:59AM 31.5867 -105.7653 278° West 306 352 13,700 -1,260 Descending Albuquerque Center
11:59AM 31.5908 -105.7781 291° West 305 351 13,500 -1,140 Descending Albuquerque Center
12:00PM 31.6289 -105.8419 305° West 307 353 12,700 -1,080 Descending Albuquerque Center
12:00PM 31.6403 -105.8614 305° West 310 357 12,400 -1,020 Descending Albuquerque Center
12:01PM 31.6783 -105.9242 305° West 308 354 11,700 -1,500 Descending Albuquerque Center
12:01PM 31.6978 -105.9583 304° West 303 349 10,900 -1,620 Descending Albuquerque Center
12:02PM 31.7231 -106.0053 302° West 298 343 10,100 -1,200 Descending Albuquerque Center
12:02PM 31.7403 -106.0364 303° West 285 328 9,700 -1,020 Descending Albuquerque Center
12:03PM 31.7597 -106.0761 300° West 245 282 9,100 -1,020 Descending Albuquerque Center
12:03PM 31.7736 -106.1042 300° West 245 282 8,700 -1,200 Descending Albuquerque Center
12:04PM 31.7936 -106.1450 300° West 227 261 7,900 -1,320 Descending Albuquerque Center
12:04PM 31.8053 -106.1692 300° West 232 267 7,400 -1,020 Descending Albuquerque Center
12:05PM 31.8247 -106.2097 299° West 228 262 6,900 -900 Descending Albuquerque Center
12:05PM 31.8353 -106.2333 298° West 226 260 6,500 -840 Descending Albuquerque Center